sensor_id;sensor_type;location;lat;lon;timestamp;P1;durP1;ratioP1;P2;durP2;ratioP2
52480;SDS011;38393;52.404;13.532;2023-04-09T00:00:36;67.63;;;33.47;;
52480;SDS011;38393;52.404;13.532;2023-04-09T00:03:01;69.80;;;35.67;;
52480;SDS011;38393;52.404;13.532;2023-04-09T00:05:27;70.60;;;34.73;;
52480;SDS011;38393;52.404;13.532;2023-04-09T00:07:52;72.87;;;35.30;;
52480;SDS011;38393;52.404;13.532;2023-04-09T00:10:18;67.13;;;34.10;;
52480;SDS011;38393;52.404;13.532;2023-04-09T00:12:44;68.60;;;34.33;;
52480;SDS011;38393;52.404;13.532;2023-04-09T00:15:09;70.53;;;34.67;;
52480;SDS011;38393;52.404;13.532;2023-04-09T00:17:35;69.33;;;33.77;;
52480;SDS011;38393;52.404;13.532;2023-04-09T00:20:01;64.70;;;33.00;;
52480;SDS011;38393;52.404;13.532;2023-04-09T00:22:26;68.27;;;34.93;;
52480;SDS011;38393;52.404;13.532;2023-04-09T00:24:52;74.93;;;36.63;;
52480;SDS011;38393;52.404;13.532;2023-04-09T00:27:18;69.67;;;35.77;;
52480;SDS011;38393;52.404;13.532;2023-04-09T00:29:43;67.33;;;33.27;;
52480;SDS011;38393;52.404;13.532;2023-04-09T00:32:08;67.63;;;34.53;;
52480;SDS011;38393;52.404;13.532;2023-04-09T00:34:34;72.87;;;34.67;;
52480;SDS011;38393;52.404;13.532;2023-04-09T00:37:00;72.20;;;35.63;;
52480;SDS011;38393;52.404;13.532;2023-04-09T00:39:25;69.43;;;34.30;;
52480;SDS011;38393;52.404;13.532;2023-04-09T00:41:55;71.73;;;35.67;;
52480;SDS011;38393;52.404;13.532;2023-04-09T00:44:21;70.83;;;34.73;;
52480;SDS011;38393;52.404;13.532;2023-04-09T00:46:47;68.07;;;35.90;;
52480;SDS011;38393;52.404;13.532;2023-04-09T00:49:12;77.87;;;36.80;;
52480;SDS011;38393;52.404;13.532;2023-04-09T00:51:38;71.23;;;36.23;;
52480;SDS011;38393;52.404;13.532;2023-04-09T00:54:04;77.93;;;37.13;;
52480;SDS011;38393;52.404;13.532;2023-04-09T00:56:31;73.13;;;37.40;;
52480;SDS011;38393;52.404;13.532;2023-04-09T00:58:56;71.90;;;36.13;;
52480;SDS011;38393;52.404;13.532;2023-04-09T01:01:23;73.40;;;37.17;;
52480;SDS011;38393;52.404;13.532;2023-04-09T01:03:48;77.70;;;37.03;;
52480;SDS011;38393;52.404;13.532;2023-04-09T01:06:16;70.27;;;34.87;;
52480;SDS011;38393;52.404;13.532;2023-04-09T01:08:56;69.63;;;35.57;;
52480;SDS011;38393;52.404;13.532;2023-04-09T01:14:20;70.47;;;34.13;;
52480;SDS011;38393;52.404;13.532;2023-04-09T01:16:51;68.77;;;33.30;;
52480;SDS011;38393;52.404;13.532;2023-04-09T01:19:34;67.00;;;33.00;;
52480;SDS011;38393;52.404;13.532;2023-04-09T01:22:39;65.13;;;32.33;;
52480;SDS011;38393;52.404;13.532;2023-04-09T01:28:18;60.07;;;31.80;;
52480;SDS011;38393;52.404;13.532;2023-04-09T01:30:52;62.97;;;32.67;;
52480;SDS011;38393;52.404;13.532;2023-04-09T01:33:28;61.10;;;32.07;;
52480;SDS011;38393;52.404;13.532;2023-04-09T01:35:55;59.33;;;30.70;;
52480;SDS011;38393;52.404;13.532;2023-04-09T01:38:21;61.40;;;31.87;;
52480;SDS011;38393;52.404;13.532;2023-04-09T01:40:47;58.77;;;31.40;;
52480;SDS011;38393;52.404;13.532;2023-04-09T01:43:14;61.43;;;31.40;;
52480;SDS011;38393;52.404;13.532;2023-04-09T01:45:39;60.40;;;31.97;;
52480;SDS011;38393;52.404;13.532;2023-04-09T01:48:06;63.13;;;32.10;;
52480;SDS011;38393;52.404;13.532;2023-04-09T01:50:33;62.83;;;31.60;;
52480;SDS011;38393;52.404;13.532;2023-04-09T01:52:59;55.90;;;29.73;;
52480;SDS011;38393;52.404;13.532;2023-04-09T01:55:25;59.23;;;30.77;;
52480;SDS011;38393;52.404;13.532;2023-04-09T01:57:51;59.43;;;30.23;;
52480;SDS011;38393;52.404;13.532;2023-04-09T02:00:17;60.70;;;30.17;;
52480;SDS011;38393;52.404;13.532;2023-04-09T02:02:48;58.07;;;30.50;;
52480;SDS011;38393;52.404;13.532;2023-04-09T02:05:18;58.77;;;31.53;;
52480;SDS011;38393;52.404;13.532;2023-04-09T02:07:47;62.13;;;30.33;;
52480;SDS011;38393;52.404;13.532;2023-04-09T02:10:18;58.80;;;30.17;;
52480;SDS011;38393;52.404;13.532;2023-04-09T02:12:47;57.27;;;30.70;;
52480;SDS011;38393;52.404;13.532;2023-04-09T02:15:15;60.37;;;30.80;;
52480;SDS011;38393;52.404;13.532;2023-04-09T02:17:41;54.87;;;29.17;;
52480;SDS011;38393;52.404;13.532;2023-04-09T02:20:06;57.50;;;29.70;;
52480;SDS011;38393;52.404;13.532;2023-04-09T02:22:32;58.77;;;29.10;;
52480;SDS011;38393;52.404;13.532;2023-04-09T02:24:57;57.80;;;29.40;;
52480;SDS011;38393;52.404;13.532;2023-04-09T02:27:23;57.40;;;30.07;;
52480;SDS011;38393;52.404;13.532;2023-04-09T02:29:49;52.07;;;28.43;;
52480;SDS011;38393;52.404;13.532;2023-04-09T02:32:15;58.90;;;29.10;;
52480;SDS011;38393;52.404;13.532;2023-04-09T02:34:40;59.70;;;30.03;;
52480;SDS011;38393;52.404;13.532;2023-04-09T02:37:06;55.30;;;29.30;;
52480;SDS011;38393;52.404;13.532;2023-04-09T02:39:31;55.17;;;29.03;;
52480;SDS011;38393;52.404;13.532;2023-04-09T02:41:57;50.63;;;27.47;;
52480;SDS011;38393;52.404;13.532;2023-04-09T02:44:22;55.77;;;28.07;;
52480;SDS011;38393;52.404;13.532;2023-04-09T02:46:49;55.33;;;27.97;;
52480;SDS011;38393;52.404;13.532;2023-04-09T02:49:16;58.13;;;29.30;;
52480;SDS011;38393;52.404;13.532;2023-04-09T02:51:41;55.43;;;28.40;;
52480;SDS011;38393;52.404;13.532;2023-04-09T02:54:06;53.13;;;28.27;;
52480;SDS011;38393;52.404;13.532;2023-04-09T02:56:32;58.03;;;29.63;;
52480;SDS011;38393;52.404;13.532;2023-04-09T02:58:57;55.23;;;28.03;;
52480;SDS011;38393;52.404;13.532;2023-04-09T03:01:23;57.60;;;29.90;;
52480;SDS011;38393;52.404;13.532;2023-04-09T03:03:48;50.87;;;27.77;;
52480;SDS011;38393;52.404;13.532;2023-04-09T03:06:14;58.33;;;29.70;;
52480;SDS011;38393;52.404;13.532;2023-04-09T03:08:40;53.77;;;27.53;;
52480;SDS011;38393;52.404;13.532;2023-04-09T03:11:05;65.00;;;32.00;;
52480;SDS011;38393;52.404;13.532;2023-04-09T03:13:31;76.43;;;35.20;;
52480;SDS011;38393;52.404;13.532;2023-04-09T03:15:56;69.63;;;34.33;;
52480;SDS011;38393;52.404;13.532;2023-04-09T03:18:21;65.13;;;31.33;;
52480;SDS011;38393;52.404;13.532;2023-04-09T03:20:47;60.33;;;31.57;;
52480;SDS011;38393;52.404;13.532;2023-04-09T03:23:13;62.23;;;30.73;;
52480;SDS011;38393;52.404;13.532;2023-04-09T03:25:38;58.77;;;30.73;;
52480;SDS011;38393;52.404;13.532;2023-04-09T03:28:03;60.03;;;29.10;;
52480;SDS011;38393;52.404;13.532;2023-04-09T03:30:29;58.93;;;28.90;;
52480;SDS011;38393;52.404;13.532;2023-04-09T03:32:55;61.33;;;30.67;;
52480;SDS011;38393;52.404;13.532;2023-04-09T03:35:20;60.30;;;29.20;;
52480;SDS011;38393;52.404;13.532;2023-04-09T03:37:46;58.50;;;29.17;;
52480;SDS011;38393;52.404;13.532;2023-04-09T03:40:11;59.13;;;29.17;;
52480;SDS011;38393;52.404;13.532;2023-04-09T03:42:37;53.13;;;27.60;;
52480;SDS011;38393;52.404;13.532;2023-04-09T03:45:03;58.00;;;29.87;;
52480;SDS011;38393;52.404;13.532;2023-04-09T03:47:29;60.63;;;28.97;;
52480;SDS011;38393;52.404;13.532;2023-04-09T03:49:54;58.90;;;29.53;;
52480;SDS011;38393;52.404;13.532;2023-04-09T03:52:20;61.30;;;29.93;;
52480;SDS011;38393;52.404;13.532;2023-04-09T03:54:46;69.40;;;33.10;;
52480;SDS011;38393;52.404;13.532;2023-04-09T03:57:12;64.40;;;29.03;;
52480;SDS011;38393;52.404;13.532;2023-04-09T03:59:37;58.90;;;28.40;;
52480;SDS011;38393;52.404;13.532;2023-04-09T04:02:03;58.47;;;30.20;;
52480;SDS011;38393;52.404;13.532;2023-04-09T04:04:28;59.27;;;28.93;;
52480;SDS011;38393;52.404;13.532;2023-04-09T04:06:54;61.33;;;30.67;;
52480;SDS011;38393;52.404;13.532;2023-04-09T04:09:19;70.67;;;31.80;;
52480;SDS011;38393;52.404;13.532;2023-04-09T04:11:45;73.83;;;34.37;;
52480;SDS011;38393;52.404;13.532;2023-04-09T04:14:11;73.97;;;33.80;;
52480;SDS011;38393;52.404;13.532;2023-04-09T04:16:37;63.87;;;31.80;;
52480;SDS011;38393;52.404;13.532;2023-04-09T04:19:04;78.50;;;36.60;;
52480;SDS011;38393;52.404;13.532;2023-04-09T04:21:29;75.87;;;36.60;;
52480;SDS011;38393;52.404;13.532;2023-04-09T04:23:55;85.87;;;38.40;;
52480;SDS011;38393;52.404;13.532;2023-04-09T04:26:20;72.53;;;34.53;;
52480;SDS011;38393;52.404;13.532;2023-04-09T04:28:46;62.57;;;32.20;;
52480;SDS011;38393;52.404;13.532;2023-04-09T04:31:11;66.13;;;31.77;;
52480;SDS011;38393;52.404;13.532;2023-04-09T04:33:39;64.93;;;32.50;;
52480;SDS011;38393;52.404;13.532;2023-04-09T04:36:06;67.20;;;32.70;;
52480;SDS011;38393;52.404;13.532;2023-04-09T04:38:36;64.67;;;32.57;;
52480;SDS011;38393;52.404;13.532;2023-04-09T04:41:02;73.13;;;32.87;;
52480;SDS011;38393;52.404;13.532;2023-04-09T04:43:28;69.40;;;32.73;;
52480;SDS011;38393;52.404;13.532;2023-04-09T04:45:53;74.13;;;34.40;;
52480;SDS011;38393;52.404;13.532;2023-04-09T04:48:19;70.87;;;34.80;;
52480;SDS011;38393;52.404;13.532;2023-04-09T04:50:45;73.07;;;35.47;;
52480;SDS011;38393;52.404;13.532;2023-04-09T04:53:11;80.13;;;37.23;;
52480;SDS011;38393;52.404;13.532;2023-04-09T04:55:36;84.13;;;38.50;;
52480;SDS011;38393;52.404;13.532;2023-04-09T04:58:03;79.57;;;39.03;;
52480;SDS011;38393;52.404;13.532;2023-04-09T05:00:29;74.60;;;36.70;;
52480;SDS011;38393;52.404;13.532;2023-04-09T05:02:55;74.87;;;38.43;;
52480;SDS011;38393;52.404;13.532;2023-04-09T05:05:20;80.77;;;40.30;;
52480;SDS011;38393;52.404;13.532;2023-04-09T05:07:46;79.47;;;38.87;;
52480;SDS011;38393;52.404;13.532;2023-04-09T05:10:11;73.27;;;37.03;;
52480;SDS011;38393;52.404;13.532;2023-04-09T05:12:36;74.83;;;37.60;;
52480;SDS011;38393;52.404;13.532;2023-04-09T05:15:02;73.53;;;35.97;;
52480;SDS011;38393;52.404;13.532;2023-04-09T05:17:28;72.53;;;35.43;;
52480;SDS011;38393;52.404;13.532;2023-04-09T05:19:53;65.87;;;32.70;;
52480;SDS011;38393;52.404;13.532;2023-04-09T05:22:19;71.60;;;33.40;;
52480;SDS011;38393;52.404;13.532;2023-04-09T05:24:44;100.03;;;30.20;;
52480;SDS011;38393;52.404;13.532;2023-04-09T05:27:10;63.30;;;30.60;;
52480;SDS011;38393;52.404;13.532;2023-04-09T05:29:35;146.00;;;30.73;;
52480;SDS011;38393;52.404;13.532;2023-04-09T05:32:01;268.10;;;32.47;;
52480;SDS011;38393;52.404;13.532;2023-04-09T05:34:26;65.90;;;28.80;;
52480;SDS011;38393;52.404;13.532;2023-04-09T05:36:52;443.87;;;30.93;;
52480;SDS011;38393;52.404;13.532;2023-04-09T05:39:18;120.73;;;28.63;;
52480;SDS011;38393;52.404;13.532;2023-04-09T05:41:43;85.70;;;27.80;;
52480;SDS011;38393;52.404;13.532;2023-04-09T05:44:10;151.50;;;28.40;;
52480;SDS011;38393;52.404;13.532;2023-04-09T05:46:36;131.37;;;26.27;;
52480;SDS011;38393;52.404;13.532;2023-04-09T05:49:02;170.43;;;26.17;;
52480;SDS011;38393;52.404;13.532;2023-04-09T05:51:27;111.30;;;24.47;;
52480;SDS011;38393;52.404;13.532;2023-04-09T05:53:53;238.67;;;26.33;;
52480;SDS011;38393;52.404;13.532;2023-04-09T05:56:19;229.80;;;24.60;;
52480;SDS011;38393;52.404;13.532;2023-04-09T05:58:46;232.13;;;25.63;;
52480;SDS011;38393;52.404;13.532;2023-04-09T06:01:12;98.20;;;23.47;;
52480;SDS011;38393;52.404;13.532;2023-04-09T06:03:38;226.53;;;26.07;;
52480;SDS011;38393;52.404;13.532;2023-04-09T06:06:03;257.13;;;27.13;;
52480;SDS011;38393;52.404;13.532;2023-04-09T06:08:29;154.90;;;26.87;;
52480;SDS011;38393;52.404;13.532;2023-04-09T06:10:55;173.20;;;27.17;;
52480;SDS011;38393;52.404;13.532;2023-04-09T06:13:20;169.30;;;28.67;;
52480;SDS011;38393;52.404;13.532;2023-04-09T06:15:46;184.27;;;27.87;;
52480;SDS011;38393;52.404;13.532;2023-04-09T06:18:12;170.53;;;28.47;;
52480;SDS011;38393;52.404;13.532;2023-04-09T06:20:37;165.63;;;28.80;;
52480;SDS011;38393;52.404;13.532;2023-04-09T06:23:03;202.17;;;30.47;;
52480;SDS011;38393;52.404;13.532;2023-04-09T06:25:28;163.03;;;32.50;;
52480;SDS011;38393;52.404;13.532;2023-04-09T06:27:54;141.67;;;31.73;;
52480;SDS011;38393;52.404;13.532;2023-04-09T06:30:20;180.13;;;30.63;;
52480;SDS011;38393;52.404;13.532;2023-04-09T06:32:46;144.33;;;31.03;;
52480;SDS011;38393;52.404;13.532;2023-04-09T06:35:12;133.20;;;30.23;;
52480;SDS011;38393;52.404;13.532;2023-04-09T06:37:38;162.33;;;27.87;;
52480;SDS011;38393;52.404;13.532;2023-04-09T06:40:04;150.60;;;28.97;;
52480;SDS011;38393;52.404;13.532;2023-04-09T06:42:30;127.87;;;29.97;;
52480;SDS011;38393;52.404;13.532;2023-04-09T06:44:56;103.30;;;29.23;;
52480;SDS011;38393;52.404;13.532;2023-04-09T06:47:21;126.67;;;28.43;;
52480;SDS011;38393;52.404;13.532;2023-04-09T06:49:46;151.10;;;31.37;;
52480;SDS011;38393;52.404;13.532;2023-04-09T06:52:12;109.00;;;30.03;;
52480;SDS011;38393;52.404;13.532;2023-04-09T06:54:37;100.63;;;30.43;;
52480;SDS011;38393;52.404;13.532;2023-04-09T06:57:03;92.73;;;31.80;;
52480;SDS011;38393;52.404;13.532;2023-04-09T06:59:30;128.57;;;31.40;;
52480;SDS011;38393;52.404;13.532;2023-04-09T07:01:56;131.43;;;30.33;;
52480;SDS011;38393;52.404;13.532;2023-04-09T07:04:21;105.07;;;31.73;;
52480;SDS011;38393;52.404;13.532;2023-04-09T07:06:47;75.70;;;31.60;;
52480;SDS011;38393;52.404;13.532;2023-04-09T07:09:12;118.33;;;28.83;;
52480;SDS011;38393;52.404;13.532;2023-04-09T07:11:37;87.77;;;30.10;;
52480;SDS011;38393;52.404;13.532;2023-04-09T07:14:03;79.40;;;29.87;;
52480;SDS011;38393;52.404;13.532;2023-04-09T07:16:28;78.27;;;30.50;;
52480;SDS011;38393;52.404;13.532;2023-04-09T07:18:54;80.27;;;31.27;;
52480;SDS011;38393;52.404;13.532;2023-04-09T07:21:19;75.37;;;30.40;;
52480;SDS011;38393;52.404;13.532;2023-04-09T07:23:45;80.23;;;31.77;;
52480;SDS011;38393;52.404;13.532;2023-04-09T07:26:10;71.27;;;29.90;;
52480;SDS011;38393;52.404;13.532;2023-04-09T07:28:36;72.30;;;31.43;;
52480;SDS011;38393;52.404;13.532;2023-04-09T07:31:01;88.07;;;31.40;;
52480;SDS011;38393;52.404;13.532;2023-04-09T07:33:27;72.70;;;31.40;;
52480;SDS011;38393;52.404;13.532;2023-04-09T07:35:53;75.73;;;31.80;;
52480;SDS011;38393;52.404;13.532;2023-04-09T07:38:18;70.27;;;30.37;;
52480;SDS011;38393;52.404;13.532;2023-04-09T07:40:44;71.30;;;31.97;;
52480;SDS011;38393;52.404;13.532;2023-04-09T07:43:10;63.93;;;31.10;;
52480;SDS011;38393;52.404;13.532;2023-04-09T07:45:35;72.53;;;33.27;;
52480;SDS011;38393;52.404;13.532;2023-04-09T07:48:00;66.63;;;31.33;;
52480;SDS011;38393;52.404;13.532;2023-04-09T07:50:26;72.07;;;34.37;;
52480;SDS011;38393;52.404;13.532;2023-04-09T07:52:52;69.67;;;32.97;;
52480;SDS011;38393;52.404;13.532;2023-04-09T07:55:17;72.90;;;33.37;;
52480;SDS011;38393;52.404;13.532;2023-04-09T07:57:44;67.17;;;32.13;;
52480;SDS011;38393;52.404;13.532;2023-04-09T08:00:09;68.57;;;32.63;;
52480;SDS011;38393;52.404;13.532;2023-04-09T08:02:36;66.67;;;33.63;;
52480;SDS011;38393;52.404;13.532;2023-04-09T08:05:01;64.80;;;32.93;;
52480;SDS011;38393;52.404;13.532;2023-04-09T08:07:27;61.90;;;32.17;;
52480;SDS011;38393;52.404;13.532;2023-04-09T08:09:52;60.87;;;31.87;;
52480;SDS011;38393;52.404;13.532;2023-04-09T08:12:18;63.70;;;31.83;;
52480;SDS011;38393;52.404;13.532;2023-04-09T08:14:43;65.93;;;33.63;;
52480;SDS011;38393;52.404;13.532;2023-04-09T08:17:08;63.87;;;32.90;;
52480;SDS011;38393;52.404;13.532;2023-04-09T08:19:34;62.27;;;32.40;;
52480;SDS011;38393;52.404;13.532;2023-04-09T08:22:00;61.73;;;32.53;;
52480;SDS011;38393;52.404;13.532;2023-04-09T08:24:25;59.60;;;31.23;;
52480;SDS011;38393;52.404;13.532;2023-04-09T08:26:51;59.03;;;31.77;;
52480;SDS011;38393;52.404;13.532;2023-04-09T08:29:16;54.40;;;29.83;;
52480;SDS011;38393;52.404;13.532;2023-04-09T08:31:42;58.53;;;31.57;;
52480;SDS011;38393;52.404;13.532;2023-04-09T08:34:07;53.53;;;30.50;;
52480;SDS011;38393;52.404;13.532;2023-04-09T08:36:33;59.07;;;31.83;;
52480;SDS011;38393;52.404;13.532;2023-04-09T08:38:59;60.10;;;31.90;;
52480;SDS011;38393;52.404;13.532;2023-04-09T08:41:26;57.67;;;31.67;;
52480;SDS011;38393;52.404;13.532;2023-04-09T08:43:55;59.03;;;31.90;;
52480;SDS011;38393;52.404;13.532;2023-04-09T08:46:22;60.17;;;32.37;;
52480;SDS011;38393;52.404;13.532;2023-04-09T08:48:49;57.37;;;31.43;;
52480;SDS011;38393;52.404;13.532;2023-04-09T08:51:16;55.50;;;30.17;;
52480;SDS011;38393;52.404;13.532;2023-04-09T08:53:44;55.23;;;31.57;;
52480;SDS011;38393;52.404;13.532;2023-04-09T08:56:11;56.67;;;31.10;;
52480;SDS011;38393;52.404;13.532;2023-04-09T08:58:41;56.63;;;31.00;;
52480;SDS011;38393;52.404;13.532;2023-04-09T09:01:26;53.67;;;30.37;;
52480;SDS011;38393;52.404;13.532;2023-04-09T09:04:00;59.40;;;31.23;;
52480;SDS011;38393;52.404;13.532;2023-04-09T09:06:30;57.10;;;31.50;;
52480;SDS011;38393;52.404;13.532;2023-04-09T09:11:44;56.00;;;29.97;;
52480;SDS011;38393;52.404;13.532;2023-04-09T09:14:13;55.13;;;30.17;;
52480;SDS011;38393;52.404;13.532;2023-04-09T09:16:40;53.57;;;30.03;;
52480;SDS011;38393;52.404;13.532;2023-04-09T09:19:08;52.77;;;30.00;;
52480;SDS011;38393;52.404;13.532;2023-04-09T09:21:34;50.63;;;29.23;;
52480;SDS011;38393;52.404;13.532;2023-04-09T09:24:00;53.33;;;29.47;;
52480;SDS011;38393;52.404;13.532;2023-04-09T09:26:40;54.13;;;29.67;;
52480;SDS011;38393;52.404;13.532;2023-04-09T09:29:05;50.67;;;29.47;;
52480;SDS011;38393;52.404;13.532;2023-04-09T09:31:32;50.90;;;28.83;;
52480;SDS011;38393;52.404;13.532;2023-04-09T09:34:17;56.17;;;28.60;;
52480;SDS011;38393;52.404;13.532;2023-04-09T09:36:45;53.20;;;28.97;;
52480;SDS011;38393;52.404;13.532;2023-04-09T09:39:12;50.80;;;28.67;;
52480;SDS011;38393;52.404;13.532;2023-04-09T09:41:38;49.13;;;27.63;;
52480;SDS011;38393;52.404;13.532;2023-04-09T09:44:05;48.37;;;27.80;;
52480;SDS011;38393;52.404;13.532;2023-04-09T09:46:35;46.47;;;26.73;;
52480;SDS011;38393;52.404;13.532;2023-04-09T09:49:03;44.60;;;26.73;;
52480;SDS011;38393;52.404;13.532;2023-04-09T09:51:30;46.30;;;27.43;;
52480;SDS011;38393;52.404;13.532;2023-04-09T09:53:56;47.37;;;27.50;;
52480;SDS011;38393;52.404;13.532;2023-04-09T09:56:23;46.33;;;26.70;;
52480;SDS011;38393;52.404;13.532;2023-04-09T09:59:42;47.03;;;27.60;;
52480;SDS011;38393;52.404;13.532;2023-04-09T10:01:47;47.27;;;28.37;;
52480;SDS011;38393;52.404;13.532;2023-04-09T10:04:19;47.67;;;27.77;;
52480;SDS011;38393;52.404;13.532;2023-04-09T10:06:47;48.43;;;27.77;;
52480;SDS011;38393;52.404;13.532;2023-04-09T10:09:13;50.40;;;28.63;;
52480;SDS011;38393;52.404;13.532;2023-04-09T10:11:39;46.83;;;27.20;;
52480;SDS011;38393;52.404;13.532;2023-04-09T10:14:09;49.73;;;28.13;;
52480;SDS011;38393;52.404;13.532;2023-04-09T10:16:36;47.70;;;27.70;;
52480;SDS011;38393;52.404;13.532;2023-04-09T10:19:01;45.37;;;26.17;;
52480;SDS011;38393;52.404;13.532;2023-04-09T10:24:07;47.83;;;27.43;;
52480;SDS011;38393;52.404;13.532;2023-04-09T10:26:34;48.67;;;27.77;;
52480;SDS011;38393;52.404;13.532;2023-04-09T10:29:04;45.57;;;26.50;;
52480;SDS011;38393;52.404;13.532;2023-04-09T10:31:44;48.77;;;26.87;;
52480;SDS011;38393;52.404;13.532;2023-04-09T10:34:28;46.77;;;26.80;;
52480;SDS011;38393;52.404;13.532;2023-04-09T10:36:57;47.00;;;27.60;;
52480;SDS011;38393;52.404;13.532;2023-04-09T10:39:25;44.47;;;26.30;;
52480;SDS011;38393;52.404;13.532;2023-04-09T10:41:57;48.30;;;27.53;;
52480;SDS011;38393;52.404;13.532;2023-04-09T10:44:26;42.90;;;25.77;;
52480;SDS011;38393;52.404;13.532;2023-04-09T10:46:55;43.33;;;25.83;;
52480;SDS011;38393;52.404;13.532;2023-04-09T10:49:21;43.87;;;25.47;;
52480;SDS011;38393;52.404;13.532;2023-04-09T10:52:07;41.40;;;24.70;;
52480;SDS011;38393;52.404;13.532;2023-04-09T10:54:44;39.90;;;23.87;;
52480;SDS011;38393;52.404;13.532;2023-04-09T10:57:14;39.53;;;23.77;;
52480;SDS011;38393;52.404;13.532;2023-04-09T11:02:20;40.90;;;23.77;;
52480;SDS011;38393;52.404;13.532;2023-04-09T11:05:10;40.30;;;23.80;;
52480;SDS011;38393;52.404;13.532;2023-04-09T11:07:56;39.07;;;22.93;;
52480;SDS011;38393;52.404;13.532;2023-04-09T11:10:27;42.57;;;24.03;;
52480;SDS011;38393;52.404;13.532;2023-04-09T11:12:53;39.23;;;22.50;;
52480;SDS011;38393;52.404;13.532;2023-04-09T11:15:19;44.10;;;24.83;;
52480;SDS011;38393;52.404;13.532;2023-04-09T11:17:45;39.57;;;23.43;;
52480;SDS011;38393;52.404;13.532;2023-04-09T11:20:15;39.23;;;22.33;;
52480;SDS011;38393;52.404;13.532;2023-04-09T11:22:43;38.90;;;23.20;;
52480;SDS011;38393;52.404;13.532;2023-04-09T11:25:09;39.77;;;22.43;;
52480;SDS011;38393;52.404;13.532;2023-04-09T11:27:37;38.07;;;22.87;;
52480;SDS011;38393;52.404;13.532;2023-04-09T11:30:03;36.43;;;21.80;;
52480;SDS011;38393;52.404;13.532;2023-04-09T11:32:30;38.90;;;22.63;;
52480;SDS011;38393;52.404;13.532;2023-04-09T11:34:55;36.77;;;22.77;;
52480;SDS011;38393;52.404;13.532;2023-04-09T11:37:21;37.90;;;22.17;;
52480;SDS011;38393;52.404;13.532;2023-04-09T11:39:48;36.43;;;21.60;;
52480;SDS011;38393;52.404;13.532;2023-04-09T11:42:18;33.60;;;20.33;;
52480;SDS011;38393;52.404;13.532;2023-04-09T11:44:44;34.93;;;20.63;;
52480;SDS011;38393;52.404;13.532;2023-04-09T11:47:10;36.40;;;20.77;;
52480;SDS011;38393;52.404;13.532;2023-04-09T11:49:37;35.27;;;21.13;;
52480;SDS011;38393;52.404;13.532;2023-04-09T11:52:03;34.53;;;21.03;;
52480;SDS011;38393;52.404;13.532;2023-04-09T11:54:32;36.67;;;21.37;;
52480;SDS011;38393;52.404;13.532;2023-04-09T11:56:58;33.93;;;20.20;;
52480;SDS011;38393;52.404;13.532;2023-04-09T11:59:24;33.70;;;20.03;;
52480;SDS011;38393;52.404;13.532;2023-04-09T12:01:50;35.07;;;20.30;;
52480;SDS011;38393;52.404;13.532;2023-04-09T12:04:19;33.70;;;20.07;;
52480;SDS011;38393;52.404;13.532;2023-04-09T12:06:45;31.53;;;19.67;;
52480;SDS011;38393;52.404;13.532;2023-04-09T12:09:11;31.57;;;19.00;;
52480;SDS011;38393;52.404;13.532;2023-04-09T12:11:38;33.17;;;19.60;;
52480;SDS011;38393;52.404;13.532;2023-04-09T12:14:06;31.83;;;18.97;;
52480;SDS011;38393;52.404;13.532;2023-04-09T12:16:36;30.20;;;18.63;;
52480;SDS011;38393;52.404;13.532;2023-04-09T12:19:05;31.40;;;18.77;;
52480;SDS011;38393;52.404;13.532;2023-04-09T12:21:44;32.03;;;18.57;;
52480;SDS011;38393;52.404;13.532;2023-04-09T12:24:11;36.03;;;19.27;;
52480;SDS011;38393;52.404;13.532;2023-04-09T12:26:37;30.33;;;17.87;;
52480;SDS011;38393;52.404;13.532;2023-04-09T12:29:02;30.70;;;18.23;;
52480;SDS011;38393;52.404;13.532;2023-04-09T12:31:28;32.37;;;18.93;;
52480;SDS011;38393;52.404;13.532;2023-04-09T12:33:53;38.53;;;19.80;;
52480;SDS011;38393;52.404;13.532;2023-04-09T12:36:19;31.70;;;19.03;;
52480;SDS011;38393;52.404;13.532;2023-04-09T12:38:44;34.97;;;20.67;;
52480;SDS011;38393;52.404;13.532;2023-04-09T12:41:10;32.67;;;19.67;;
52480;SDS011;38393;52.404;13.532;2023-04-09T12:43:37;31.40;;;19.93;;
52480;SDS011;38393;52.404;13.532;2023-04-09T12:46:02;30.57;;;19.17;;
52480;SDS011;38393;52.404;13.532;2023-04-09T12:48:28;30.60;;;18.73;;
52480;SDS011;38393;52.404;13.532;2023-04-09T12:50:53;30.80;;;18.50;;
52480;SDS011;38393;52.404;13.532;2023-04-09T12:53:19;29.33;;;18.33;;
52480;SDS011;38393;52.404;13.532;2023-04-09T12:55:44;32.23;;;19.03;;
52480;SDS011;38393;52.404;13.532;2023-04-09T12:58:10;28.37;;;17.47;;
52480;SDS011;38393;52.404;13.532;2023-04-09T13:00:36;27.70;;;18.50;;
52480;SDS011;38393;52.404;13.532;2023-04-09T13:03:01;28.03;;;17.67;;
52480;SDS011;38393;52.404;13.532;2023-04-09T13:05:27;29.07;;;17.53;;
52480;SDS011;38393;52.404;13.532;2023-04-09T13:07:52;30.57;;;18.57;;
52480;SDS011;38393;52.404;13.532;2023-04-09T13:10:18;28.47;;;17.30;;
52480;SDS011;38393;52.404;13.532;2023-04-09T13:12:43;26.80;;;17.30;;
52480;SDS011;38393;52.404;13.532;2023-04-09T13:15:09;27.67;;;17.20;;
52480;SDS011;38393;52.404;13.532;2023-04-09T13:17:35;26.47;;;16.00;;
52480;SDS011;38393;52.404;13.532;2023-04-09T13:20:01;24.73;;;15.60;;
52480;SDS011;38393;52.404;13.532;2023-04-09T13:22:27;25.73;;;16.30;;
52480;SDS011;38393;52.404;13.532;2023-04-09T13:24:52;23.57;;;15.63;;
52480;SDS011;38393;52.404;13.532;2023-04-09T13:27:18;24.93;;;16.17;;
52480;SDS011;38393;52.404;13.532;2023-04-09T13:29:43;24.13;;;15.60;;
52480;SDS011;38393;52.404;13.532;2023-04-09T13:32:09;21.50;;;14.10;;
52480;SDS011;38393;52.404;13.532;2023-04-09T13:34:35;22.70;;;14.63;;
52480;SDS011;38393;52.404;13.532;2023-04-09T13:37:02;20.80;;;13.43;;
52480;SDS011;38393;52.404;13.532;2023-04-09T13:39:27;20.90;;;13.77;;
52480;SDS011;38393;52.404;13.532;2023-04-09T13:41:53;21.27;;;13.83;;
52480;SDS011;38393;52.404;13.532;2023-04-09T13:44:20;22.33;;;14.60;;
52480;SDS011;38393;52.404;13.532;2023-04-09T13:46:45;22.60;;;14.80;;
52480;SDS011;38393;52.404;13.532;2023-04-09T13:49:11;22.93;;;14.93;;
52480;SDS011;38393;52.404;13.532;2023-04-09T13:51:36;22.77;;;15.07;;
52480;SDS011;38393;52.404;13.532;2023-04-09T13:54:02;25.17;;;15.00;;
52480;SDS011;38393;52.404;13.532;2023-04-09T13:56:28;24.63;;;15.63;;
52480;SDS011;38393;52.404;13.532;2023-04-09T13:58:53;24.93;;;15.70;;
52480;SDS011;38393;52.404;13.532;2023-04-09T14:01:19;22.20;;;14.40;;
52480;SDS011;38393;52.404;13.532;2023-04-09T14:03:44;24.77;;;14.73;;
52480;SDS011;38393;52.404;13.532;2023-04-09T14:06:10;19.07;;;12.50;;
52480;SDS011;38393;52.404;13.532;2023-04-09T14:08:37;18.90;;;12.00;;
52480;SDS011;38393;52.404;13.532;2023-04-09T14:11:02;19.70;;;12.40;;
52480;SDS011;38393;52.404;13.532;2023-04-09T14:13:28;16.37;;;11.37;;
52480;SDS011;38393;52.404;13.532;2023-04-09T14:15:54;20.03;;;12.77;;
52480;SDS011;38393;52.404;13.532;2023-04-09T14:18:19;20.77;;;13.33;;
52480;SDS011;38393;52.404;13.532;2023-04-09T14:20:45;22.33;;;13.10;;